Time;durP1;ratioP1;P1;durP2;ratioP2;P2;SDS_P1;SDS_P2;PMS_P1;PMS_P2;Temp;Humidity;BMP_temperature;BMP_pressure;BME280_temperature;BME280_humidity;BME280_pressure;Samples;Min_cycle;Max_cycle;Signal;HPM_P1;HPM_P2
2022/07/23 00:01:04;;;;;;;7.50;4.50;;;;;;;;;;5040410;28;89200;-48
2022/07/23 00:03:32;;;;;;;6.13;4.03;;;;;;;;;;5040463;28;88160;-49
2022/07/23 00:06:01;;;;;;;9.53;4.73;;;;;;;;;;5041026;28;87021;-49
2022/07/23 00:08:29;;;;;;;7.80;3.67;;;;;;;;;;5041659;28;86232;-48
2022/07/23 00:10:57;;;;;;;9.97;4.17;;;;;;;;;;5040596;28;88187;-48
2022/07/23 00:13:26;;;;;;;8.13;4.07;;;;;;;;;;5040684;27;87864;-49
2022/07/23 00:15:55;;;;;;;5.47;3.77;;;;;;;;;;5043367;28;87979;-48
2022/07/23 00:18:24;;;;;;;5.50;3.07;;;;;;;;;;5044227;28;86912;-48
2022/07/23 00:20:53;;;;;;;6.37;3.47;;;;;;;;;;5044492;28;87964;-49
2022/07/23 00:23:22;;;;;;;6.30;3.67;;;;;;;;;;5043560;28;87844;-48
2022/07/23 00:25:50;;;;;;;8.53;4.23;;;;;;;;;;5043969;28;86830;-48
2022/07/23 00:28:19;;;;;;;8.40;3.43;;;;;;;;;;5044374;28;87041;-48
2022/07/23 00:30:47;;;;;;;6.33;2.93;;;;;;;;;;5043760;28;88316;-49
2022/07/23 00:33:15;;;;;;;5.83;3.10;;;;;;;;;;5044381;28;87559;-49
2022/07/23 00:35:45;;;;;;;5.53;3.70;;;;;;;;;;5044111;28;87066;-49
2022/07/23 00:38:13;;;;;;;4.13;2.73;;;;;;;;;;5044195;28;87047;-49
2022/07/23 00:40:42;;;;;;;6.50;2.67;;;;;;;;;;5043813;28;90197;-48
2022/07/23 00:43:10;;;;;;;3.43;2.33;;;;;;;;;;5043928;28;89934;-50
2022/07/23 00:45:38;;;;;;;4.53;2.77;;;;;;;;;;5044257;28;87091;-50
2022/07/23 00:48:07;;;;;;;8.53;2.73;;;;;;;;;;5044069;28;86998;-49
2022/07/23 00:50:35;;;;;;;3.87;2.63;;;;;;;;;;5043822;28;88250;-48
2022/07/23 00:53:05;;;;;;;5.20;2.73;;;;;;;;;;5043640;28;87934;-49
2022/07/23 00:55:33;;;;;;;3.87;2.53;;;;;;;;;;5043375;28;87652;-48
2022/07/23 00:58:01;;;;;;;3.10;2.30;;;;;;;;;;5043681;28;86372;-48
2022/07/23 01:00:30;;;;;;;4.23;2.33;;;;;;;;;;5043185;28;88384;-48
2022/07/23 01:02:58;;;;;;;2.40;1.83;;;;;;;;;;5027328;28;87867;-49
2022/07/23 01:05:26;;;;;;;2.17;1.77;;;;;;;;;;5035109;28;87994;-48
2022/07/23 01:07:55;;;;;;;4.07;1.97;;;;;;;;;;5042906;28;87035;-48
2022/07/23 01:10:34;;;;;;;3.03;2.10;;;;;;;;;;5034556;28;88074;-48
2022/07/23 01:13:03;;;;;;;3.00;2.00;;;;;;;;;;5043153;28;87671;-48
2022/07/23 01:15:32;;;;;;;3.27;2.07;;;;;;;;;;5043204;28;87134;-48
2022/07/23 01:18:00;;;;;;;3.43;1.93;;;;;;;;;;5044103;28;86871;-49
2022/07/23 01:20:28;;;;;;;2.90;1.67;;;;;;;;;;5043534;28;88319;-49
2022/07/23 01:22:58;;;;;;;2.17;1.60;;;;;;;;;;5043230;28;86498;-48
2022/07/23 01:25:26;;;;;;;3.27;1.60;;;;;;;;;;5043542;27;86852;-49
2022/07/23 01:27:55;;;;;;;2.53;1.60;;;;;;;;;;5042791;28;87690;-49
2022/07/23 01:30:23;;;;;;;4.00;1.67;;;;;;;;;;5042536;28;90151;-48
2022/07/23 01:32:51;;;;;;;1.20;1.10;;;;;;;;;;5042845;28;89817;-49
2022/07/23 01:35:19;;;;;;;2.80;1.43;;;;;;;;;;5043345;28;86999;-48
2022/07/23 01:37:48;;;;;;;1.87;1.03;;;;;;;;;;5043261;28;86890;-49
2022/07/23 01:40:17;;;;;;;1.50;1.40;;;;;;;;;;5042649;28;88501;-48
2022/07/23 01:42:47;;;;;;;2.37;1.40;;;;;;;;;;5042264;28;87774;-49
2022/07/23 01:45:16;;;;;;;1.00;0.90;;;;;;;;;;5042852;28;87121;-49
2022/07/23 01:47:44;;;;;;;1.37;1.07;;;;;;;;;;5043103;28;86297;-48
2022/07/23 01:50:12;;;;;;;3.57;1.30;;;;;;;;;;5042995;28;88135;-49
2022/07/23 01:52:41;;;;;;;1.17;1.07;;;;;;;;;;5041608;28;87183;-48
2022/07/23 01:55:09;;;;;;;2.70;1.30;;;;;;;;;;5042142;28;87907;-48
2022/07/23 01:57:47;;;;;;;1.80;0.93;;;;;;;;;;5043249;28;86946;-49
2022/07/23 02:00:15;;;;;;;2.57;1.30;;;;;;;;;;5042695;28;88199;-49
2022/07/23 02:02:44;;;;;;;1.97;1.23;;;;;;;;;;5042823;28;88982;-48
2022/07/23 02:05:12;;;;;;;1.90;0.97;;;;;;;;;;5042602;28;86978;-48
2022/07/23 02:07:40;;;;;;;1.33;1.00;;;;;;;;;;5042567;28;87081;-48
2022/07/23 02:10:09;;;;;;;1.60;1.30;;;;;;;;;;5042124;28;86962;-49
2022/07/23 02:12:37;;;;;;;1.00;0.80;;;;;;;;;;5042887;28;87811;-48
2022/07/23 02:15:08;;;;;;;1.47;1.00;;;;;;;;;;5042761;28;86932;-49
2022/07/23 02:17:37;;;;;;;1.20;1.03;;;;;;;;;;5042604;28;87003;-50
2022/07/23 02:20:06;;;;;;;2.27;1.40;;;;;;;;;;5041843;28;88969;-49
2022/07/23 02:22:34;;;;;;;2.17;1.37;;;;;;;;;;5042537;28;88460;-48
2022/07/23 02:25:02;;;;;;;1.77;1.30;;;;;;;;;;5041891;28;87337;-48
2022/07/23 02:27:31;;;;;;;1.90;1.67;;;;;;;;;;5042714;28;86979;-49
2022/07/23 02:29:59;;;;;;;3.40;2.03;;;;;;;;;;5042144;28;88099;-48
2022/07/23 02:32:29;;;;;;;3.67;2.50;;;;;;;;;;5041706;28;88977;-48
2022/07/23 02:34:57;;;;;;;4.07;2.77;;;;;;;;;;5042140;28;87532;-48
2022/07/23 02:37:25;;;;;;;4.93;2.60;;;;;;;;;;5042710;28;86157;-48
2022/07/23 02:39:54;;;;;;;4.40;2.70;;;;;;;;;;5041806;28;88100;-49
2022/07/23 02:42:23;;;;;;;4.80;3.50;;;;;;;;;;5041719;28;87832;-48
2022/07/23 02:44:51;;;;;;;6.70;3.73;;;;;;;;;;5041633;28;87677;-48
2022/07/23 02:47:20;;;;;;;5.37;3.13;;;;;;;;;;5042015;28;87103;-48
2022/07/23 02:49:49;;;;;;;6.33;4.03;;;;;;;;;;5042290;28;89356;-49
2022/07/23 02:52:18;;;;;;;6.23;4.83;;;;;;;;;;5041666;28;87785;-48
2022/07/23 02:54:46;;;;;;;7.07;5.13;;;;;;;;;;5041803;28;87132;-49
2022/07/23 02:57:14;;;;;;;7.47;5.07;;;;;;;;;;5041620;28;87181;-48
2022/07/23 02:59:43;;;;;;;8.97;6.10;;;;;;;;;;5041707;28;88089;-48
2022/07/23 03:02:11;;;;;;;8.80;6.93;;;;;;;;;;5041580;28;86525;-48
2022/07/23 03:04:42;;;;;;;10.50;7.47;;;;;;;;;;5041362;28;86927;-48
2022/07/23 03:07:11;;;;;;;14.30;8.90;;;;;;;;;;5042168;28;86928;-48
2022/07/23 03:09:40;;;;;;;11.97;8.50;;;;;;;;;;5041645;28;88739;-48
2022/07/23 03:12:09;;;;;;;13.63;8.77;;;;;;;;;;5041865;28;88389;-49
2022/07/23 03:14:41;;;;;;;14.57;8.97;;;;;;;;;;5042230;28;86977;-48
2022/07/23 03:17:09;;;;;;;12.50;9.53;;;;;;;;;;5041622;28;87044;-48
2022/07/23 03:19:38;;;;;;;13.47;9.20;;;;;;;;;;5041076;28;88172;-48
2022/07/23 03:22:06;;;;;;;15.90;10.27;;;;;;;;;;5041748;28;88920;-48
2022/07/23 03:24:54;;;;;;;14.33;10.07;;;;;;;;;;5040955;28;87038;-48
2022/07/23 03:27:23;;;;;;;17.33;10.63;;;;;;;;;;5041693;28;86401;-48
2022/07/23 03:29:51;;;;;;;17.00;10.73;;;;;;;;;;5040795;28;87000;-48
2022/07/23 03:32:19;;;;;;;21.17;11.37;;;;;;;;;;5040171;28;88933;-48
2022/07/23 03:34:47;;;;;;;15.43;10.10;;;;;;;;;;5040541;28;87911;-48
2022/07/23 03:37:16;;;;;;;13.73;9.20;;;;;;;;;;5040832;28;86848;-49
2022/07/23 03:39:45;;;;;;;14.37;9.73;;;;;;;;;;5040974;28;88205;-49
2022/07/23 03:42:14;;;;;;;15.30;10.53;;;;;;;;;;5041047;28;88161;-49
2022/07/23 03:44:42;;;;;;;15.40;10.07;;;;;;;;;;5040977;28;86747;-49
2022/07/23 03:47:10;;;;;;;15.97;10.50;;;;;;;;;;5041439;28;86909;-48
2022/07/23 03:49:39;;;;;;;11.83;9.43;;;;;;;;;;5041357;28;89309;-50
2022/07/23 03:52:07;;;;;;;13.67;10.50;;;;;;;;;;5045032;28;87778;-48
2022/07/23 03:54:35;;;;;;;17.20;11.07;;;;;;;;;;5044238;28;87018;-48
2022/07/23 03:57:05;;;;;;;13.87;10.63;;;;;;;;;;5044453;28;87082;-49
2022/07/23 03:59:33;;;;;;;16.27;10.30;;;;;;;;;;5043655;28;88962;-49
2022/07/23 04:02:02;;;;;;;16.70;11.50;;;;;;;;;;5043914;28;89841;-49
2022/07/23 04:04:30;;;;;;;16.30;11.30;;;;;;;;;;5044157;28;87076;-49
2022/07/23 04:06:58;;;;;;;15.13;10.73;;;;;;;;;;5043738;28;86990;-48
2022/07/23 04:09:27;;;;;;;15.87;11.00;;;;;;;;;;5043184;28;88118;-47
2022/07/23 04:11:55;;;;;;;17.73;11.80;;;;;;;;;;5044092;28;88013;-48
2022/07/23 04:14:25;;;;;;;15.73;11.53;;;;;;;;;;5044100;28;86749;-48
2022/07/23 04:16:53;;;;;;;15.33;10.97;;;;;;;;;;5044383;28;86215;-49
2022/07/23 04:19:21;;;;;;;16.00;11.27;;;;;;;;;;5043690;28;88217;-48
2022/07/23 04:21:50;;;;;;;13.90;10.60;;;;;;;;;;5043476;28;89026;-48
2022/07/23 04:24:18;;;;;;;20.77;11.90;;;;;;;;;;5043364;28;87957;-49
2022/07/23 04:26:46;;;;;;;18.23;11.03;;;;;;;;;;5043697;28;87061;-48
2022/07/23 04:29:15;;;;;;;17.27;10.73;;;;;;;;;;5042526;28;88225;-49
2022/07/23 04:31:44;;;;;;;18.27;11.23;;;;;;;;;;5042302;28;87879;-49
2022/07/23 04:34:13;;;;;;;14.77;10.57;;;;;;;;;;5042922;28;86967;-48
2022/07/23 04:36:41;;;;;;;16.30;10.57;;;;;;;;;;5043762;28;86957;-48
2022/07/23 04:39:09;;;;;;;13.47;10.03;;;;;;;;;;5043946;28;89178;-48
2022/07/23 04:41:37;;;;;;;10.37;8.33;;;;;;;;;;5043578;28;87914;-48
2022/07/23 04:44:06;;;;;;;16.87;9.60;;;;;;;;;;5043817;28;87147;-48
2022/07/23 04:46:34;;;;;;;14.57;9.13;;;;;;;;;;5043791;28;87827;-48
2022/07/23 04:49:04;;;;;;;11.47;8.90;;;;;;;;;;5043164;28;89051;-49
2022/07/23 04:51:33;;;;;;;13.80;9.47;;;;;;;;;;5043922;28;88794;-48
2022/07/23 04:54:02;;;;;;;13.37;9.03;;;;;;;;;;5044372;28;87151;-49
2022/07/23 04:56:30;;;;;;;10.57;8.13;;;;;;;;;;5043552;28;87080;-50
2022/07/23 04:58:58;;;;;;;11.77;7.90;;;;;;;;;;5043667;28;89155;-48
2022/07/23 05:01:27;;;;;;;7.37;6.20;;;;;;;;;;5042968;27;87742;-49
2022/07/23 05:03:55;;;;;;;7.97;6.40;;;;;;;;;;5044085;28;87093;-48
2022/07/23 05:06:25;;;;;;;9.27;6.27;;;;;;;;;;5044197;28;86225;-49
2022/07/23 05:08:55;;;;;;;7.50;5.13;;;;;;;;;;5042863;28;89139;-48
2022/07/23 05:11:23;;;;;;;7.33;6.00;;;;;;;;;;5044137;28;87005;-49
2022/07/23 05:13:54;;;;;;;6.60;5.40;;;;;;;;;;5042684;28;87862;-48
2022/07/23 05:16:22;;;;;;;7.07;5.27;;;;;;;;;;5043862;28;87118;-49
2022/07/23 05:18:51;;;;;;;8.43;5.80;;;;;;;;;;5043850;28;88053;-49
2022/07/23 05:21:19;;;;;;;7.00;4.80;;;;;;;;;;5043234;28;89093;-48
2022/07/23 05:23:49;;;;;;;8.63;5.67;;;;;;;;;;5043734;28;87082;-48
2022/07/23 05:26:17;;;;;;;7.40;5.30;;;;;;;;;;5043206;28;87084;-48
2022/07/23 05:28:48;;;;;;;5.40;4.47;;;;;;;;;;5043496;28;89051;-48
2022/07/23 05:31:27;;;;;;;7.53;4.20;;;;;;;;;;5043593;28;87689;-49
2022/07/23 05:33:55;;;;;;;7.33;6.13;;;;;;;;;;5043566;28;86944;-48
2022/07/23 05:36:24;;;;;;;6.50;4.43;;;;;;;;;;5043481;28;87142;-49
2022/07/23 05:38:53;;;;;;;6.60;4.87;;;;;;;;;;5042640;28;90013;-49
2022/07/23 05:41:22;;;;;;;5.47;4.37;;;;;;;;;;5043014;28;89956;-49
2022/07/23 05:43:50;;;;;;;7.43;4.50;;;;;;;;;;5043231;28;87087;-48
2022/07/23 05:46:18;;;;;;;5.63;3.97;;;;;;;;;;5043201;28;87006;-48
2022/07/23 05:48:49;;;;;;;5.73;4.20;;;;;;;;;;5043112;28;88336;-49
2022/07/23 05:51:20;;;;;;;4.43;3.67;;;;;;;;;;5042681;28;88003;-50
2022/07/23 05:53:49;;;;;;;5.13;4.03;;;;;;;;;;5042930;28;86987;-49
2022/07/23 05:56:18;;;;;;;5.13;4.00;;;;;;;;;;5043311;28;86309;-48
2022/07/23 05:58:47;;;;;;;5.73;3.93;;;;;;;;;;5042956;28;88310;-48
2022/07/23 06:01:15;;;;;;;6.07;4.03;;;;;;;;;;5042056;28;87824;-48
2022/07/23 06:03:43;;;;;;;5.07;3.07;;;;;;;;;;5042466;28;87875;-48
2022/07/23 06:06:12;;;;;;;4.27;3.43;;;;;;;;;;5042601;28;87117;-48
2022/07/23 06:08:40;;;;;;;5.13;3.77;;;;;;;;;;5042834;28;88413;-48
2022/07/23 06:11:08;;;;;;;5.47;4.07;;;;;;;;;;5042308;28;87878;-48
2022/07/23 06:13:38;;;;;;;4.97;3.33;;;;;;;;;;5042094;27;87167;-48
2022/07/23 06:16:06;;;;;;;5.07;3.63;;;;;;;;;;5042778;28;86870;-48
2022/07/23 06:18:35;;;;;;;5.27;3.20;;;;;;;;;;5042209;28;89127;-48
2022/07/23 06:21:03;;;;;;;5.33;3.20;;;;;;;;;;5042588;28;87691;-48
2022/07/23 06:23:51;;;;;;;4.67;3.43;;;;;;;;;;5039038;28;87099;-48
2022/07/23 06:26:20;;;;;;;4.83;3.50;;;;;;;;;;5035853;27;87221;-48
2022/07/23 06:28:49;;;;;;;3.43;2.60;;;;;;;;;;5047801;27;90182;-49
2022/07/23 06:31:17;;;;;;;4.47;3.30;;;;;;;;;;5051083;27;87429;-50
2022/07/23 06:33:46;;;;;;;4.30;2.97;;;;;;;;;;5041199;27;87984;-49
2022/07/23 06:36:14;;;;;;;4.00;3.07;;;;;;;;;;5042426;28;87005;-49
2022/07/23 06:38:42;;;;;;;3.43;2.87;;;;;;;;;;5042241;28;88138;-48
2022/07/23 06:41:12;;;;;;;4.13;3.40;;;;;;;;;;5048040;27;87804;-49
2022/07/23 06:43:40;;;;;;;4.53;2.73;;;;;;;;;;5051307;27;87038;-48
2022/07/23 06:46:10;;;;;;;3.90;3.27;;;;;;;;;;5051005;27;86398;-49
2022/07/23 06:48:38;;;;;;;3.57;3.03;;;;;;;;;;5042334;27;88331;-49
2022/07/23 06:51:06;;;;;;;2.87;2.43;;;;;;;;;;5039755;27;87533;-49
2022/07/23 06:53:35;;;;;;;4.70;3.47;;;;;;;;;;5042453;28;87960;-49
2022/07/23 06:56:03;;;;;;;3.87;2.90;;;;;;;;;;5042248;28;86875;-49
2022/07/23 06:58:31;;;;;;;3.90;2.70;;;;;;;;;;5041946;28;88305;-49
2022/07/23 07:00:59;;;;;;;4.27;3.07;;;;;;;;;;5041650;28;87909;-49
2022/07/23 07:03:29;;;;;;;3.23;2.70;;;;;;;;;;5041932;28;86856;-49
2022/07/23 07:05:58;;;;;;;4.23;2.60;;;;;;;;;;5041591;28;86933;-48
2022/07/23 07:08:26;;;;;;;3.00;2.20;;;;;;;;;;5032694;28;89107;-49
2022/07/23 07:10:54;;;;;;;2.57;2.37;;;;;;;;;;5037396;28;87865;-48
2022/07/23 07:13:23;;;;;;;2.53;1.93;;;;;;;;;;5040077;28;87378;-48
2022/07/23 07:15:51;;;;;;;3.33;2.50;;;;;;;;;;5039901;28;87027;-48
2022/07/23 07:18:19;;;;;;;5.83;2.50;;;;;;;;;;5039437;28;88886;-48
2022/07/23 07:20:49;;;;;;;5.03;2.07;;;;;;;;;;5039700;28;89794;-48
2022/07/23 07:23:18;;;;;;;3.03;2.57;;;;;;;;;;5039755;28;86987;-50
2022/07/23 07:25:46;;;;;;;3.10;2.27;;;;;;;;;;5029559;28;88599;-48
2022/07/23 07:28:15;;;;;;;4.50;2.77;;;;;;;;;;5039270;28;89203;-48
2022/07/23 07:30:43;;;;;;;2.77;2.57;;;;;;;;;;5039145;28;89079;-48
2022/07/23 07:33:11;;;;;;;4.07;2.23;;;;;;;;;;5039814;28;86930;-48
2022/07/23 07:35:40;;;;;;;2.57;2.33;;;;;;;;;;5040006;28;86385;-49
2022/07/23 07:38:09;;;;;;;4.10;2.37;;;;;;;;;;5039002;28;87067;-49
2022/07/23 07:40:38;;;;;;;2.40;1.90;;;;;;;;;;5039382;28;87959;-50
2022/07/23 07:43:06;;;;;;;3.67;2.40;;;;;;;;;;5039566;28;88128;-49
2022/07/23 07:45:34;;;;;;;3.93;2.63;;;;;;;;;;5041482;28;87031;-49
2022/07/23 07:48:02;;;;;;;2.47;1.97;;;;;;;;;;5040994;28;88137;-48
2022/07/23 07:50:31;;;;;;;5.43;2.73;;;;;;;;;;5038790;28;88942;-48
2022/07/23 07:52:59;;;;;;;3.87;2.07;;;;;;;;;;5035998;28;87017;-49
2022/07/23 07:55:30;;;;;;;3.43;2.47;;;;;;;;;;5039067;28;87032;-48
2022/07/23 07:57:59;;;;;;;3.33;2.67;;;;;;;;;;5027035;28;89201;-49
2022/07/23 08:00:29;;;;;;;3.47;2.30;;;;;;;;;;5032357;28;86491;-48
2022/07/23 08:03:00;;;;;;;2.97;2.60;;;;;;;;;;5029610;28;86969;-49
2022/07/23 08:05:30;;;;;;;5.83;3.00;;;;;;;;;;5036151;28;86997;-49
2022/07/23 08:07:59;;;;;;;2.80;2.60;;;;;;;;;;5035505;28;90055;-49
2022/07/23 08:10:28;;;;;;;3.90;2.90;;;;;;;;;;5040790;28;88916;-49
2022/07/23 08:12:57;;;;;;;3.37;2.50;;;;;;;;;;5040621;28;86917;-48
2022/07/23 08:15:27;;;;;;;4.77;2.93;;;;;;;;;;5032911;28;87039;-50
2022/07/23 08:17:55;;;;;;;4.53;2.60;;;;;;;;;;5040579;28;89489;-48
2022/07/23 08:20:23;;;;;;;2.43;2.07;;;;;;;;;;5040546;28;87742;-48
2022/07/23 08:22:54;;;;;;;4.87;2.50;;;;;;;;;;5040678;28;87066;-48
2022/07/23 08:25:22;;;;;;;5.00;2.40;;;;;;;;;;5036547;28;86253;-48
2022/07/23 08:27:51;;;;;;;4.77;2.90;;;;;;;;;;5034899;28;87911;-48
2022/07/23 08:30:21;;;;;;;2.50;2.20;;;;;;;;;;5034201;28;88916;-48
2022/07/23 08:32:50;;;;;;;4.13;2.93;;;;;;;;;;5034008;28;88000;-48
2022/07/23 08:35:18;;;;;;;4.00;2.37;;;;;;;;;;5027875;28;87042;-47
2022/07/23 08:37:46;;;;;;;3.00;2.40;;;;;;;;;;5033136;28;88265;-48
2022/07/23 08:40:15;;;;;;;3.10;2.43;;;;;;;;;;5032183;28;87109;-48
2022/07/23 08:42:43;;;;;;;3.87;2.20;;;;;;;;;;5027627;28;87175;-48
2022/07/23 08:45:11;;;;;;;3.63;2.67;;;;;;;;;;5040806;28;87111;-49
2022/07/23 08:47:41;;;;;;;3.97;2.63;;;;;;;;;;5042077;28;88098;-48
2022/07/23 08:50:10;;;;;;;4.43;2.53;;;;;;;;;;5042064;28;88878;-49
2022/07/23 08:52:39;;;;;;;4.33;3.00;;;;;;;;;;5042763;28;87218;-48
2022/07/23 08:55:08;;;;;;;4.87;2.60;;;;;;;;;;5042230;28;87019;-48
2022/07/23 08:57:36;;;;;;;3.37;2.57;;;;;;;;;;5041022;28;89178;-49
2022/07/23 09:00:06;;;;;;;3.77;2.73;;;;;;;;;;5041786;28;89929;-50
2022/07/23 09:02:41;;;;;;;5.30;2.73;;;;;;;;;;5041799;28;87070;-49
2022/07/23 09:05:10;;;;;;;5.03;3.57;;;;;;;;;;5041943;28;87006;-49
2022/07/23 09:07:39;;;;;;;3.67;2.63;;;;;;;;;;5039000;28;88265;-50
2022/07/23 09:10:08;;;;;;;4.43;3.30;;;;;;;;;;5041003;28;87986;-49
2022/07/23 09:12:36;;;;;;;3.73;2.93;;;;;;;;;;5039058;28;87031;-49
2022/07/23 09:15:05;;;;;;;5.27;2.60;;;;;;;;;;5041707;28;86228;-49
2022/07/23 09:17:38;;;;;;;3.87;2.43;;;;;;;;;;5041140;28;88299;-48
2022/07/23 09:20:11;;;;;;;3.47;2.50;;;;;;;;;;5041347;28;88173;-49
2022/07/23 09:22:41;;;;;;;3.87;2.67;;;;;;;;;;5038938;28;87958;-48
2022/07/23 09:25:11;;;;;;;4.10;2.80;;;;;;;;;;5041371;28;87154;-49
2022/07/23 09:28:03;;;;;;;3.40;2.67;;;;;;;;;;5041042;28;86941;-50
2022/07/23 09:30:34;;;;;;;3.80;2.80;;;;;;;;;;5021039;28;87865;-49
2022/07/23 09:33:06;;;;;;;3.67;2.57;;;;;;;;;;5041594;28;87091;-49
2022/07/23 09:35:51;;;;;;;3.00;2.57;;;;;;;;;;5042382;28;86952;-48
2022/07/23 09:38:20;;;;;;;3.27;2.40;;;;;;;;;;5042498;28;88153;-49
2022/07/23 09:40:48;;;;;;;3.20;2.80;;;;;;;;;;5043499;28;88857;-50
2022/07/23 09:43:27;;;;;;;5.43;3.17;;;;;;;;;;5043207;28;86864;-49
2022/07/23 09:46:17;;;;;;;2.27;2.03;;;;;;;;;;5043277;28;86958;-48
2022/07/23 09:48:45;;;;;;;3.77;2.57;;;;;;;;;;5041420;28;90079;-48
2022/07/23 09:51:16;;;;;;;3.07;2.53;;;;;;;;;;5043073;28;89803;-49
2022/07/23 09:53:45;;;;;;;2.67;2.43;;;;;;;;;;5042706;28;87018;-49
2022/07/23 09:56:14;;;;;;;3.83;2.87;;;;;;;;;;5042748;28;87848;-48
2022/07/23 09:58:48;;;;;;;4.77;2.43;;;;;;;;;;5041831;28;88380;-48
2022/07/23 10:01:16;;;;;;;5.00;3.47;;;;;;;;;;5042560;28;89005;-48
2022/07/23 10:03:44;;;;;;;3.90;3.00;;;;;;;;;;5042642;28;87058;-50
2022/07/23 10:06:13;;;;;;;5.03;2.63;;;;;;;;;;5043143;28;86331;-49
2022/07/23 10:08:43;;;;;;;4.90;2.73;;;;;;;;;;5042608;28;86968;-48
2022/07/23 10:11:11;;;;;;;6.07;3.17;;;;;;;;;;5042395;28;87040;-49
2022/07/23 10:13:54;;;;;;;3.87;2.57;;;;;;;;;;5041611;28;87948;-50
2022/07/23 10:16:22;;;;;;;3.70;3.03;;;;;;;;;;5042451;28;87131;-48
2022/07/23 10:18:54;;;;;;;4.83;3.13;;;;;;;;;;5041769;28;88102;-49
2022/07/23 10:21:25;;;;;;;5.03;3.10;;;;;;;;;;5042085;28;87403;-50
2022/07/23 10:24:03;;;;;;;6.03;2.80;;;;;;;;;;5042583;28;87192;-49
2022/07/23 10:26:33;;;;;;;4.43;3.13;;;;;;;;;;5042228;28;87027;-49
2022/07/23 10:29:04;;;;;;;6.37;3.23;;;;;;;;;;5042509;28;87130;-50
2022/07/23 10:31:36;;;;;;;6.23;3.20;;;;;;;;;;5042042;28;88800;-50
2022/07/23 10:34:26;;;;;;;4.47;3.00;;;;;;;;;;5041744;28;87051;-48
2022/07/23 10:36:55;;;;;;;3.77;2.80;;;;;;;;;;5041592;27;87000;-49
2022/07/23 10:39:26;;;;;;;4.73;3.33;;;;;;;;;;5033271;28;90346;-49
2022/07/23 10:41:54;;;;;;;5.43;3.33;;;;;;;;;;5041997;28;87414;-49
2022/07/23 10:44:23;;;;;;;4.27;3.10;;;;;;;;;;5041200;28;86994;-49
2022/07/23 10:46:59;;;;;;;4.90;3.23;;;;;;;;;;5041798;28;86991;-50
2022/07/23 10:49:31;;;;;;;5.80;3.67;;;;;;;;;;5042135;28;86828;-50
2022/07/23 10:52:19;;;;;;;3.57;3.00;;;;;;;;;;5042058;28;87830;-48
2022/07/23 10:54:50;;;;;;;3.10;2.57;;;;;;;;;;5041989;28;86859;-48
2022/07/23 10:57:19;;;;;;;5.00;3.30;;;;;;;;;;5042310;28;86490;-49
2022/07/23 11:00:07;;;;;;;4.33;3.40;;;;;;;;;;5039293;28;89132;-49
2022/07/23 11:02:35;;;;;;;3.67;2.70;;;;;;;;;;5032359;28;86913;-50
2022/07/23 11:05:05;;;;;;;3.27;2.50;;;;;;;;;;5039677;28;87829;-49
2022/07/23 11:07:34;;;;;;;6.47;2.80;;;;;;;;;;5039463;28;87128;-49
2022/07/23 11:10:04;;;;;;;4.17;2.80;;;;;;;;;;5039696;28;87799;-49
2022/07/23 11:12:38;;;;;;;3.80;2.70;;;;;;;;;;5039475;28;87917;-49
2022/07/23 11:15:07;;;;;;;5.53;2.87;;;;;;;;;;5039079;28;87098;-49
2022/07/23 11:17:37;;;;;;;4.47;2.80;;;;;;;;;;5037713;28;86970;-50
2022/07/23 11:20:17;;;;;;;4.60;2.73;;;;;;;;;;5039585;28;89299;-49
2022/07/23 11:22:50;;;;;;;2.40;2.00;;;;;;;;;;5039741;28;87879;-49
2022/07/23 11:25:34;;;;;;;3.17;2.07;;;;;;;;;;5039086;28;87330;-48
2022/07/23 11:28:09;;;;;;;2.70;2.40;;;;;;;;;;5034621;28;87016;-48
2022/07/23 11:30:42;;;;;;;2.40;2.00;;;;;;;;;;5038534;28;90297;-50
2022/07/23 11:33:22;;;;;;;4.10;2.73;;;;;;;;;;5031452;28;88729;-49
2022/07/23 11:35:53;;;;;;;4.63;2.50;;;;;;;;;;5030187;28;87039;-48
2022/07/23 11:38:22;;;;;;;3.27;2.30;;;;;;;;;;5039553;28;87056;-50
2022/07/23 11:40:52;;;;;;;4.00;2.40;;;;;;;;;;5039886;28;88341;-49
2022/07/23 11:43:20;;;;;;;2.50;2.10;;;;;;;;;;5038914;28;88953;-50
2022/07/23 11:45:50;;;;;;;5.07;2.63;;;;;;;;;;5040049;28;87022;-48
2022/07/23 11:48:19;;;;;;;3.77;2.90;;;;;;;;;;5040120;28;86363;-48
2022/07/23 11:50:47;;;;;;;4.13;2.87;;;;;;;;;;5039862;28;88062;-48
2022/07/23 11:53:16;;;;;;;4.80;3.40;;;;;;;;;;5039992;28;87844;-48
2022/07/23 11:55:44;;;;;;;3.43;2.40;;;;;;;;;;5039846;28;88022;-48
2022/07/23 11:58:14;;;;;;;5.67;3.53;;;;;;;;;;5038896;28;87060;-48
2022/07/23 12:00:42;;;;;;;5.27;3.43;;;;;;;;;;5040463;28;88111;-48
2022/07/23 12:03:11;;;;;;;5.87;4.00;;;;;;;;;;5040660;28;87765;-49
2022/07/23 12:05:40;;;;;;;7.43;4.03;;;;;;;;;;5039329;28;87097;-48
2022/07/23 12:08:09;;;;;;;5.90;3.93;;;;;;;;;;5039397;28;87115;-48
2022/07/23 12:10:37;;;;;;;7.17;4.67;;;;;;;;;;5039026;27;89187;-49
2022/07/23 12:13:06;;;;;;;7.53;4.00;;;;;;;;;;5042827;28;87794;-48
2022/07/23 12:15:38;;;;;;;6.23;3.97;;;;;;;;;;5042124;28;87034;-48
2022/07/23 12:18:06;;;;;;;7.80;4.27;;;;;;;;;;5042250;28;87003;-49
2022/07/23 12:20:35;;;;;;;7.37;4.40;;;;;;;;;;5042454;28;90100;-48
2022/07/23 12:23:04;;;;;;;8.90;5.30;;;;;;;;;;5042015;28;88882;-48
2022/07/23 12:25:33;;;;;;;8.87;5.27;;;;;;;;;;5042918;28;87016;-48
2022/07/23 12:28:02;;;;;;;12.13;6.57;;;;;;;;;;5044199;28;86950;-50
2022/07/23 12:30:32;;;;;;;13.93;6.83;;;;;;;;;;5043744;28;88129;-50
2022/07/23 12:33:05;;;;;;;7.67;5.77;;;;;;;;;;5043778;28;88642;-50
2022/07/23 12:35:38;;;;;;;10.37;6.20;;;;;;;;;;5043327;28;87152;-49
2022/07/23 12:38:07;;;;;;;10.57;6.03;;;;;;;;;;5044567;28;86381;-49
2022/07/23 12:40:35;;;;;;;11.13;6.23;;;;;;;;;;5043887;28;88253;-50
2022/07/23 12:43:04;;;;;;;12.47;6.50;;;;;;;;;;5043875;28;88919;-50
2022/07/23 12:45:46;;;;;;;12.77;6.47;;;;;;;;;;5042813;28;87981;-48
2022/07/23 12:48:19;;;;;;;12.43;7.23;;;;;;;;;;5044013;28;86964;-49
2022/07/23 12:50:58;;;;;;;9.60;5.73;;;;;;;;;;5043143;28;88147;-48
2022/07/23 12:53:28;;;;;;;12.53;6.50;;;;;;;;;;5043932;28;88960;-49
2022/07/23 12:56:00;;;;;;;9.53;6.03;;;;;;;;;;5043492;28;87091;-49
2022/07/23 12:58:46;;;;;;;11.37;6.00;;;;;;;;;;5043243;28;87092;-49
2022/07/23 13:01:25;;;;;;;10.00;5.53;;;;;;;;;;5042176;28;88153;-50
2022/07/23 13:04:02;;;;;;;11.03;6.50;;;;;;;;;;5042112;28;87840;-49
2022/07/23 13:06:39;;;;;;;8.83;5.60;;;;;;;;;;5040712;28;87083;-50
2022/07/23 13:09:08;;;;;;;9.47;5.50;;;;;;;;;;5039035;28;87098;-49
2022/07/23 13:11:37;;;;;;;13.00;7.27;;;;;;;;;;5041101;28;89195;-48
2022/07/23 13:14:06;;;;;;;12.17;7.27;;;;;;;;;;5043273;28;89736;-49
2022/07/23 13:16:54;;;;;;;11.87;7.10;;;;;;;;;;5043939;28;86818;-50
2022/07/23 13:19:26;;;;;;;13.50;7.40;;;;;;;;;;5043878;28;87076;-50
2022/07/23 13:21:55;;;;;;;14.20;7.00;;;;;;;;;;5043168;27;88037;-49
2022/07/23 13:24:23;;;;;;;14.03;8.10;;;;;;;;;;5043092;28;88013;-49
2022/07/23 13:26:52;;;;;;;15.80;7.87;;;;;;;;;;5042986;28;87193;-49
2022/07/23 13:29:20;;;;;;;20.73;9.20;;;;;;;;;;5043594;28;86309;-49
2022/07/23 13:31:49;;;;;;;13.37;8.30;;;;;;;;;;5042586;28;87918;-50
2022/07/23 13:34:18;;;;;;;14.77;8.90;;;;;;;;;;5043030;28;88822;-49
2022/07/23 13:36:48;;;;;;;16.57;9.17;;;;;;;;;;5042463;28;87791;-51
2022/07/23 13:39:17;;;;;;;14.43;7.77;;;;;;;;;;5043164;28;86930;-49
2022/07/23 13:41:45;;;;;;;15.27;8.40;;;;;;;;;;5042949;28;88151;-49
2022/07/23 13:44:17;;;;;;;16.30;9.43;;;;;;;;;;5042781;28;87748;-49
2022/07/23 13:46:47;;;;;;;15.83;8.13;;;;;;;;;;5043176;28;87615;-48
2022/07/23 13:49:16;;;;;;;17.13;9.10;;;;;;;;;;5042877;28;87373;-49
2022/07/23 13:51:45;;;;;;;16.60;8.37;;;;;;;;;;5042635;28;88043;-49
2022/07/23 13:54:14;;;;;;;13.67;7.70;;;;;;;;;;5043162;28;88004;-49
2022/07/23 13:56:43;;;;;;;17.27;8.67;;;;;;;;;;5042324;28;87046;-48
2022/07/23 13:59:11;;;;;;;14.03;7.67;;;;;;;;;;5042632;28;87064;-51
2022/07/23 14:01:39;;;;;;;14.67;7.90;;;;;;;;;;5041798;28;90059;-48
2022/07/23 14:04:28;;;;;;;15.97;8.13;;;;;;;;;;5042320;28;91012;-49
2022/07/23 14:06:56;;;;;;;11.50;7.10;;;;;;;;;;5041890;28;86879;-50
2022/07/23 14:09:26;;;;;;;12.77;7.07;;;;;;;;;;5038238;28;88412;-49
2022/07/23 14:11:55;;;;;;;11.30;7.47;;;;;;;;;;5038312;28;88057;-49
2022/07/23 14:14:23;;;;;;;13.47;7.87;;;;;;;;;;5040719;28;88876;-49
2022/07/23 14:16:52;;;;;;;9.00;6.50;;;;;;;;;;5040637;28;87231;-49
2022/07/23 14:19:20;;;;;;;11.70;6.87;;;;;;;;;;5040044;28;86260;-49
2022/07/23 14:21:49;;;;;;;11.97;7.27;;;;;;;;;;5039416;28;89150;-49
2022/07/23 14:24:17;;;;;;;10.53;7.00;;;;;;;;;;5040018;28;87873;-49
2022/07/23 14:26:47;;;;;;;11.17;6.40;;;;;;;;;;5039218;28;88133;-49
2022/07/23 14:29:15;;;;;;;10.17;6.43;;;;;;;;;;5040116;28;87035;-49
2022/07/23 14:31:44;;;;;;;9.97;5.73;;;;;;;;;;5039505;28;87915;-49
2022/07/23 14:34:14;;;;;;;10.37;6.37;;;;;;;;;;5038043;27;89010;-49
2022/07/23 14:36:43;;;;;;;11.90;6.83;;;;;;;;;;5039294;28;86970;-49
2022/07/23 14:39:11;;;;;;;7.63;5.70;;;;;;;;;;5041864;28;86964;-49
2022/07/23 14:41:40;;;;;;;14.83;6.77;;;;;;;;;;5040943;28;88035;-49
2022/07/23 14:44:09;;;;;;;10.37;6.37;;;;;;;;;;5041950;28;87406;-49
2022/07/23 14:46:38;;;;;;;10.23;5.90;;;;;;;;;;5039858;28;87019;-50
2022/07/23 14:49:06;;;;;;;10.50;6.90;;;;;;;;;;5039997;28;87273;-49
2022/07/23 14:51:36;;;;;;;11.67;5.70;;;;;;;;;;5036807;28;89199;-50
2022/07/23 14:54:04;;;;;;;12.47;6.40;;;;;;;;;;5039485;28;88586;-50